Time;durP1;ratioP1;P1;durP2;ratioP2;P2;SDS_P1;SDS_P2;PMS_P1;PMS_P2;Temp;Humidity;BMP_temperature;BMP_pressure;BME280_temperature;BME280_humidity;BME280_pressure;Samples;Min_cycle;Max_cycle;Signal;HPM_P1;HPM_P2
2023/03/26 00:00:13;;;;;;;28.67;6.35;;;10.20;84.30;;;;;;5023309;28;20409;-76
2023/03/26 00:02:39;;;;;;;22.60;5.13;;;10.20;84.30;;;;;;5019499;28;20674;-76
2023/03/26 00:05:07;;;;;;;19.17;5.70;;;10.10;84.40;;;;;;5025723;28;20080;-75
2023/03/26 00:07:33;;;;;;;24.95;5.97;;;10.20;84.30;;;;;;5023189;28;20037;-75
2023/03/26 00:09:59;;;;;;;27.23;6.15;;;10.10;84.50;;;;;;5025712;28;20481;-76
2023/03/26 00:12:25;;;;;;;25.73;6.38;;;10.10;84.50;;;;;;5022404;28;20051;-75
2023/03/26 00:14:51;;;;;;;28.63;6.85;;;10.10;84.70;;;;;;5022420;28;20644;-76
2023/03/26 00:17:17;;;;;;;24.65;5.68;;;10.10;84.70;;;;;;5022254;28;20052;-77
2023/03/26 00:19:43;;;;;;;21.65;5.47;;;10.10;84.70;;;;;;5027389;28;20047;-77
2023/03/26 00:22:13;;;;;;;26.13;5.57;;;10.10;84.80;;;;;;5021490;28;20826;-74
2023/03/26 00:24:39;;;;;;;33.20;6.63;;;10.10;84.80;;;;;;5003944;28;20039;-76
2023/03/26 00:27:05;;;;;;;28.05;5.82;;;10.10;84.80;;;;;;5021272;28;20044;-75
2023/03/26 00:29:32;;;;;;;23.98;6.65;;;10.00;84.70;;;;;;5026927;28;20294;-74
2023/03/26 00:31:58;;;;;;;19.35;4.75;;;10.00;84.70;;;;;;5019478;28;20029;-74
2023/03/26 00:34:25;;;;;;;24.95;5.30;;;10.10;84.50;;;;;;5022663;28;20025;-75
2023/03/26 00:36:53;;;;;;;25.63;5.45;;;10.00;84.40;;;;;;5023711;28;20032;-75
2023/03/26 00:39:22;;;;;;;19.45;4.88;;;10.00;84.20;;;;;;5022376;28;20041;-74
2023/03/26 00:41:53;;;;;;;23.30;5.50;;;9.90;84.30;;;;;;5022645;28;20123;-76
2023/03/26 00:44:19;;;;;;;22.00;5.10;;;9.90;84.20;;;;;;5032250;28;20033;-74
2023/03/26 00:46:45;;;;;;;20.75;5.00;;;9.80;84.30;;;;;;5018763;28;20053;-73
2023/03/26 00:49:13;;;;;;;25.40;6.25;;;9.80;84.10;;;;;;5009312;28;20025;-76
2023/03/26 00:51:40;;;;;;;25.00;5.45;;;9.80;84.10;;;;;;5022746;28;20033;-75
2023/03/26 00:54:07;;;;;;;27.88;6.20;;;9.70;84.10;;;;;;5024102;28;20119;-76
2023/03/26 00:56:33;;;;;;;23.52;5.95;;;9.80;84.00;;;;;;5019704;28;20051;-77
2023/03/26 00:58:59;;;;;;;29.23;6.25;;;9.70;84.00;;;;;;5023861;28;20041;-76
2023/03/26 01:01:26;;;;;;;24.02;5.57;;;9.70;84.10;;;;;;5031209;28;20056;-75
2023/03/26 01:03:57;;;;;;;24.50;5.50;;;9.70;84.00;;;;;;5022309;28;20413;-74
2023/03/26 01:06:33;;;;;;;20.20;7.00;;;9.70;83.90;;;;;;5022718;28;20025;-74
2023/03/26 01:09:22;;;;;;;19.70;6.25;;;9.70;83.90;;;;;;5026090;28;20033;-75
2023/03/26 01:11:49;;;;;;;32.58;7.80;;;9.70;83.90;;;;;;5008046;28;20052;-77
2023/03/26 01:14:23;;;;;;;20.95;5.47;;;9.70;83.80;;;;;;5021657;28;20579;-74
2023/03/26 01:16:55;;;;;;;21.85;5.38;;;9.70;83.60;;;;;;5022354;28;20513;-74
2023/03/26 01:19:29;;;;;;;19.20;4.65;;;9.70;83.60;;;;;;5019220;28;20068;-75
2023/03/26 01:21:56;;;;;;;21.30;5.28;;;9.70;83.70;;;;;;5023314;28;20121;-75
2023/03/26 01:24:22;;;;;;;18.75;4.68;;;9.70;83.60;;;;;;5016075;28;20034;-77
2023/03/26 01:26:53;;;;;;;21.63;5.13;;;9.70;83.60;;;;;;5030351;28;20046;-75
2023/03/26 01:29:39;;;;;;;21.77;5.90;;;9.70;83.70;;;;;;5030497;28;20024;-77
2023/03/26 01:32:08;;;;;;;18.58;5.03;;;9.70;83.60;;;;;;5005485;28;20037;-75
2023/03/26 01:34:56;;;;;;;23.38;5.68;;;9.70;83.40;;;;;;5017478;28;20773;-74
2023/03/26 01:37:32;;;;;;;26.17;5.75;;;9.70;83.40;;;;;;5024739;28;20347;-75
2023/03/26 01:40:25;;;;;;;20.02;5.22;;;9.70;83.40;;;;;;5019163;28;20029;-74
2023/03/26 01:42:50;;;;;;;23.90;5.10;;;9.70;83.30;;;;;;5006295;28;20049;-76
2023/03/26 01:45:21;;;;;;;28.42;5.20;;;9.70;83.20;;;;;;5021894;28;20122;-72
2023/03/26 01:47:47;;;;;;;26.77;5.50;;;9.70;83.10;;;;;;5020247;28;20115;-73
2023/03/26 01:50:14;;;;;;;23.60;5.72;;;9.70;83.00;;;;;;5004616;28;20126;-74
2023/03/26 01:52:39;;;;;;;18.38;4.07;;;9.60;82.80;;;;;;5027106;28;20117;-75
2023/03/26 01:55:10;;;;;;;20.08;4.60;;;9.60;82.70;;;;;;5022375;28;20055;-75
2023/03/26 01:57:56;;;;;;;20.23;4.32;;;9.60;82.60;;;;;;5002882;28;20130;-75
2023/03/26 02:00:41;;;;;;;24.17;5.18;;;9.60;82.50;;;;;;5021260;28;20389;-75
2023/03/26 02:03:18;;;;;;;18.80;4.43;;;9.60;82.40;;;;;;5023653;28;20360;-74
2023/03/26 02:05:48;;;;;;;21.65;4.88;;;9.60;82.20;;;;;;5017819;28;20033;-76
2023/03/26 02:08:34;;;;;;;19.10;4.43;;;9.70;82.10;;;;;;5021981;28;20053;-73
2023/03/26 02:11:10;;;;;;;19.95;4.50;;;9.70;82.20;;;;;;5022346;28;20362;-76
2023/03/26 02:13:36;;;;;;;16.00;4.35;;;9.70;82.10;;;;;;5021727;28;20025;-76
2023/03/26 02:16:06;;;;;;;20.75;4.72;;;9.70;82.00;;;;;;5019740;28;21009;-75
2023/03/26 02:18:37;;;;;;;23.23;5.05;;;9.70;82.00;;;;;;5007710;28;20021;-77
2023/03/26 02:21:24;;;;;;;18.90;4.50;;;9.70;81.90;;;;;;5019225;28;20086;-77
2023/03/26 02:24:01;;;;;;;21.73;4.18;;;9.70;81.80;;;;;;5004543;28;20036;-75
2023/03/26 02:26:29;;;;;;;17.25;4.63;;;9.60;81.90;;;;;;5021026;28;20485;-76
2023/03/26 02:28:56;;;;;;;20.00;5.00;;;9.60;81.90;;;;;;5022555;28;20027;-73
2023/03/26 02:31:25;;;;;;;19.10;4.03;;;9.60;81.90;;;;;;5026219;28;20029;-74
2023/03/26 02:33:51;;;;;;;14.90;3.97;;;9.70;82.00;;;;;;5027369;28;20086;-74
2023/03/26 02:36:20;;;;;;;16.73;4.47;;;9.60;81.90;;;;;;5010669;28;20179;-78
2023/03/26 02:38:46;;;;;;;18.80;4.78;;;9.70;81.80;;;;;;5023800;28;20203;-75
2023/03/26 02:41:12;;;;;;;19.88;4.05;;;9.70;81.80;;;;;;5029433;28;20456;-77
2023/03/26 02:43:37;;;;;;;17.30;4.90;;;9.70;81.70;;;;;;5010225;28;20025;-73
2023/03/26 02:46:03;;;;;;;20.90;4.82;;;9.70;81.70;;;;;;5022991;28;21337;-73
2023/03/26 02:48:30;;;;;;;19.63;5.47;;;9.70;81.70;;;;;;5023150;28;20053;-75
2023/03/26 02:50:56;;;;;;;20.35;5.70;;;9.70;81.70;;;;;;5023772;28;20346;-75
2023/03/26 02:53:28;;;;;;;17.52;4.88;;;9.60;81.70;;;;;;5026302;28;20025;-76
2023/03/26 02:55:58;;;;;;;23.02;5.50;;;9.60;81.60;;;;;;5024096;28;20063;-77
2023/03/26 02:58:25;;;;;;;17.70;5.47;;;9.60;81.80;;;;;;5025002;28;20033;-73
2023/03/26 03:00:55;;;;;;;22.83;5.68;;;9.60;81.60;;;;;;5025472;28;20521;-73
2023/03/26 03:03:25;;;;;;;17.63;6.00;;;9.60;81.60;;;;;;5024129;28;20031;-74
2023/03/26 03:05:53;;;;;;;19.10;5.28;;;9.60;81.70;;;;;;5025573;28;20534;-75
2023/03/26 03:08:25;;;;;;;21.85;5.68;;;9.60;81.70;;;;;;5024432;28;20074;-74
2023/03/26 03:11:25;;;;;;;21.70;5.32;;;9.60;81.60;;;;;;5006343;28;20022;-74
2023/03/26 03:13:52;;;;;;;20.67;5.00;;;9.60;81.80;;;;;;5021661;28;20128;-73
2023/03/26 03:16:18;;;;;;;18.73;5.68;;;9.60;81.70;;;;;;5025559;28;20045;-76
2023/03/26 03:18:46;;;;;;;20.52;5.60;;;9.60;81.90;;;;;;5024164;28;20149;-73
2023/03/26 03:21:12;;;;;;;18.83;5.22;;;9.50;81.90;;;;;;5027084;28;20390;-74
2023/03/26 03:23:37;;;;;;;16.80;4.35;;;9.60;82.00;;;;;;5026039;28;20022;-75
2023/03/26 03:26:05;;;;;;;18.35;4.97;;;9.50;81.90;;;;;;5025413;28;20563;-75
2023/03/26 03:28:31;;;;;;;20.48;5.70;;;9.50;82.10;;;;;;5020705;28;20450;-76
2023/03/26 03:30:57;;;;;;;16.52;4.57;;;9.60;82.20;;;;;;5026294;28;20036;-76
2023/03/26 03:33:23;;;;;;;23.02;6.03;;;9.50;82.30;;;;;;5026943;28;20029;-74
2023/03/26 03:35:49;;;;;;;21.70;5.78;;;9.40;82.50;;;;;;5024643;28;20036;-77
2023/03/26 03:38:16;;;;;;;17.48;5.35;;;9.50;82.30;;;;;;5025096;28;20642;-74
2023/03/26 03:40:42;;;;;;;19.75;5.60;;;9.50;82.40;;;;;;5023929;28;20029;-76
2023/03/26 03:43:08;;;;;;;15.30;4.65;;;9.50;82.30;;;;;;5025679;28;20131;-76
2023/03/26 03:45:34;;;;;;;22.83;5.22;;;9.50;82.70;;;;;;5024458;28;20029;-76
2023/03/26 03:47:59;;;;;;;16.73;5.20;;;9.50;82.70;;;;;;5025201;28;20049;-75
2023/03/26 03:50:25;;;;;;;18.10;4.43;;;9.50;82.80;;;;;;5022382;28;20311;-76
2023/03/26 03:52:51;;;;;;;18.63;5.38;;;9.60;82.80;;;;;;5022223;28;20057;-76
2023/03/26 03:55:17;;;;;;;18.17;5.10;;;9.50;83.00;;;;;;5024356;28;20120;-78
2023/03/26 03:57:43;;;;;;;17.52;4.50;;;9.50;83.10;;;;;;5022484;28;20041;-75
2023/03/26 04:00:10;;;;;;;20.63;5.72;;;9.50;83.00;;;;;;5024475;28;21006;-75
2023/03/26 04:02:37;;;;;;;22.88;6.25;;;9.50;83.00;;;;;;5020350;28;20037;-77
2023/03/26 04:05:04;;;;;;;26.95;5.85;;;9.50;83.30;;;;;;5025572;28;20395;-74
2023/03/26 04:07:31;;;;;;;18.05;4.55;;;9.50;83.30;;;;;;5026421;28;20029;-76
2023/03/26 04:10:01;;;;;;;17.25;5.10;;;9.50;83.20;;;;;;5025828;28;20115;-76
2023/03/26 04:12:28;;;;;;;19.25;5.90;;;9.50;83.30;;;;;;5022122;28;20033;-75
2023/03/26 04:14:54;;;;;;;17.83;4.88;;;9.60;83.40;;;;;;5023618;28;20044;-74
2023/03/26 04:17:22;;;;;;;17.00;5.72;;;9.60;83.30;;;;;;5021636;28;20029;-76
2023/03/26 04:19:49;;;;;;;23.90;6.18;;;9.60;83.30;;;;;;5027639;28;20470;-75
2023/03/26 04:22:17;;;;;;;21.65;5.38;;;9.60;83.30;;;;;;5022592;28;20140;-76
2023/03/26 04:24:43;;;;;;;18.02;5.53;;;9.60;83.20;;;;;;5022572;28;20026;-76
2023/03/26 04:27:15;;;;;;;16.67;5.57;;;9.60;83.20;;;;;;5025327;28;20045;-73
2023/03/26 04:29:45;;;;;;;16.60;5.15;;;9.60;83.20;;;;;;5024248;28;20025;-73
2023/03/26 04:32:20;;;;;;;16.25;4.82;;;9.60;83.20;;;;;;5023557;28;20033;-74
2023/03/26 04:34:46;;;;;;;16.58;4.55;;;9.60;83.10;;;;;;5023434;28;20056;-74
2023/03/26 04:37:39;;;;;;;17.92;4.97;;;9.60;82.90;;;;;;5026100;28;20030;-77
2023/03/26 04:40:08;;;;;;;17.30;4.97;;;9.60;82.40;;;;;;5021191;28;20049;-74
2023/03/26 04:42:36;;;;;;;17.00;3.78;;;9.60;82.20;;;;;;5023890;28;20045;-77
2023/03/26 04:45:06;;;;;;;15.93;3.85;;;9.60;82.20;;;;;;5021721;28;20048;-75
2023/03/26 04:47:35;;;;;;;17.02;3.80;;;9.60;82.20;;;;;;5020699;28;20041;-74
2023/03/26 04:50:02;;;;;;;17.77;4.50;;;9.60;81.80;;;;;;5024069;28;20489;-77
2023/03/26 04:52:29;;;;;;;15.20;3.95;;;9.60;81.60;;;;;;5022078;28;20129;-77
2023/03/26 04:54:55;;;;;;;13.93;3.88;;;9.60;81.60;;;;;;5006084;28;20303;-75
2023/03/26 04:57:35;;;;;;;17.30;4.13;;;9.60;81.70;;;;;;5019982;28;20067;-75
2023/03/26 05:00:07;;;;;;;13.60;3.92;;;9.60;81.70;;;;;;5023974;28;20031;-74
2023/03/26 05:02:36;;;;;;;15.20;3.53;;;9.60;81.90;;;;;;5021291;28;20060;-75
2023/03/26 05:05:02;;;;;;;14.77;3.35;;;9.60;81.60;;;;;;5022016;28;20414;-77
2023/03/26 05:07:27;;;;;;;11.68;3.58;;;9.60;81.60;;;;;;5020177;28;20094;-77
2023/03/26 05:09:53;;;;;;;14.45;4.40;;;9.60;81.80;;;;;;5024463;28;20462;-77
2023/03/26 05:12:18;;;;;;;18.15;4.28;;;9.60;81.90;;;;;;5024811;28;20412;-74
2023/03/26 05:14:44;;;;;;;13.75;3.88;;;9.60;82.20;;;;;;5024816;28;20489;-72
2023/03/26 05:17:13;;;;;;;12.57;3.03;;;9.50;83.00;;;;;;5020717;28;20038;-75
2023/03/26 05:19:40;;;;;;;12.13;3.47;;;9.50;83.90;;;;;;5022228;28;20073;-73
2023/03/26 05:22:06;;;;;;;12.50;3.65;;;9.30;84.70;;;;;;5032373;28;20038;-77
2023/03/26 05:24:31;;;;;;;13.63;3.63;;;9.30;84.70;;;;;;5022162;28;20036;-75
2023/03/26 05:26:57;;;;;;;14.05;2.80;;;9.10;84.70;;;;;;5018351;28;20230;-75
2023/03/26 05:29:23;;;;;;;12.15;3.58;;;9.10;85.00;;;;;;5020722;28;20040;-75
2023/03/26 05:31:49;;;;;;;15.52;4.03;;;9.00;85.40;;;;;;5020454;28;20037;-73
2023/03/26 05:34:15;;;;;;;13.18;3.65;;;8.90;85.90;;;;;;5024546;28;20071;-75
2023/03/26 05:36:41;;;;;;;14.90;3.47;;;8.90;86.30;;;;;;5022630;28;20465;-75
2023/03/26 05:39:07;;;;;;;13.18;3.22;;;8.80;86.40;;;;;;5025400;28;20060;-75
2023/03/26 05:41:33;;;;;;;10.07;2.80;;;8.80;86.60;;;;;;5016015;28;20025;-74
2023/03/26 05:43:59;;;;;;;11.25;3.55;;;8.80;86.80;;;;;;5023769;28;20045;-76
2023/03/26 05:46:26;;;;;;;13.30;3.13;;;8.80;86.90;;;;;;5021171;28;20057;-75
2023/03/26 05:48:52;;;;;;;11.65;3.30;;;8.80;87.00;;;;;;5005644;28;20064;-75
2023/03/26 05:51:19;;;;;;;12.68;3.83;;;8.70;87.10;;;;;;5019946;28;20567;-75
2023/03/26 05:53:45;;;;;;;12.13;3.30;;;8.70;87.40;;;;;;5021519;28;20022;-74
2023/03/26 05:56:11;;;;;;;14.18;3.30;;;8.70;87.50;;;;;;5017819;28;20049;-76
2023/03/26 05:58:37;;;;;;;11.82;3.58;;;8.60;87.50;;;;;;5024920;28;20546;-75
2023/03/26 06:01:08;;;;;;;10.18;2.65;;;8.50;87.50;;;;;;5017399;28;20140;-75
2023/03/26 06:03:38;;;;;;;6.93;2.60;;;8.60;87.20;;;;;;5020366;28;20052;-77
2023/03/26 06:06:16;;;;;;;4.75;1.65;;;8.40;86.50;;;;;;5021015;28;20115;-77
2023/03/26 06:08:50;;;;;;;5.13;2.10;;;8.30;86.20;;;;;;5024464;28;20120;-77
2023/03/26 06:11:18;;;;;;;4.40;1.60;;;8.30;86.20;;;;;;5023140;28;20041;-75
2023/03/26 06:13:44;;;;;;;4.85;1.77;;;8.20;85.80;;;;;;5020833;28;20104;-76
2023/03/26 06:16:11;;;;;;;5.43;1.77;;;8.20;86.20;;;;;;5020833;28;20052;-74
2023/03/26 06:18:38;;;;;;;7.38;1.80;;;8.10;86.20;;;;;;5022444;28;20057;-75
2023/03/26 06:21:05;;;;;;;4.15;2.00;;;8.20;86.50;;;;;;5005023;28;20040;-74
2023/03/26 06:23:31;;;;;;;5.32;1.77;;;8.20;86.70;;;;;;5020506;28;20120;-76
2023/03/26 06:25:57;;;;;;;4.25;1.60;;;8.10;86.80;;;;;;5021218;28;20041;-76
2023/03/26 06:28:23;;;;;;;5.15;1.60;;;8.20;86.80;;;;;;5029727;28;20391;-74
2023/03/26 06:30:50;;;;;;;8.13;2.90;;;8.20;86.70;;;;;;5022951;28;20468;-75
2023/03/26 06:33:15;;;;;;;6.18;1.83;;;8.20;87.00;;;;;;5021251;28;20201;-76
2023/03/26 06:35:43;;;;;;;38.80;26.33;;;8.20;87.00;;;;;;5020354;28;20465;-77
2023/03/26 06:38:10;;;;;;;21.17;15.35;;;8.20;87.20;;;;;;5007829;28;20021;-76
2023/03/26 06:40:35;;;;;;;13.57;6.75;;;8.10;87.20;;;;;;5023645;28;20590;-74
2023/03/26 06:43:01;;;;;;;10.95;6.50;;;8.10;87.30;;;;;;5021676;28;20041;-77
2023/03/26 06:45:28;;;;;;;9.15;5.07;;;8.10;87.40;;;;;;5027634;28;20413;-74
2023/03/26 06:47:54;;;;;;;8.32;4.22;;;8.20;87.40;;;;;;5018839;28;20157;-75
2023/03/26 06:50:19;;;;;;;11.63;5.85;;;8.20;87.20;;;;;;5028833;28;20021;-76
2023/03/26 06:52:45;;;;;;;9.40;6.03;;;8.10;87.00;;;;;;5022951;28;20483;-74
2023/03/26 06:55:11;;;;;;;11.25;6.07;;;8.10;87.10;;;;;;5023822;28;20033;-74
2023/03/26 06:57:37;;;;;;;9.25;6.10;;;8.10;86.70;;;;;;5021260;28;20935;-77
2023/03/26 07:00:04;;;;;;;11.50;8.35;;;8.10;86.80;;;;;;5024103;28;20710;-76
2023/03/26 07:02:30;;;;;;;9.60;4.70;;;8.10;86.80;;;;;;5021165;28;20061;-76
2023/03/26 07:04:56;;;;;;;8.48;3.55;;;8.20;86.90;;;;;;5020805;28;20064;-76
2023/03/26 07:07:23;;;;;;;6.75;2.70;;;8.20;86.70;;;;;;5024293;28;20490;-73
2023/03/26 07:09:49;;;;;;;6.13;2.50;;;8.20;86.80;;;;;;5022763;28;20128;-75
2023/03/26 07:12:15;;;;;;;7.43;3.20;;;8.20;86.90;;;;;;5021058;28;20410;-74
2023/03/26 07:14:41;;;;;;;5.25;2.50;;;8.30;86.90;;;;;;5023930;28;20475;-74
2023/03/26 07:17:07;;;;;;;8.52;3.40;;;8.30;86.80;;;;;;5028664;28;20032;-75
2023/03/26 07:19:32;;;;;;;7.85;3.10;;;8.30;86.80;;;;;;5026250;28;20060;-77
2023/03/26 07:21:58;;;;;;;6.30;2.85;;;8.30;86.80;;;;;;5023926;28;20066;-75
2023/03/26 07:24:25;;;;;;;7.43;2.28;;;8.30;86.60;;;;;;5025452;28;20057;-77
2023/03/26 07:27:15;;;;;;;6.75;2.80;;;8.30;86.70;;;;;;5023281;28;20093;-74
2023/03/26 07:29:56;;;;;;;6.53;2.75;;;8.30;86.70;;;;;;5033123;28;20030;-73
2023/03/26 07:32:34;;;;;;;10.00;3.75;;;8.20;86.50;;;;;;5021016;28;20378;-73
2023/03/26 07:35:22;;;;;;;5.93;2.53;;;8.30;86.70;;;;;;5021901;28;20124;-71
2023/03/26 07:38:11;;;;;;;13.43;5.35;;;8.30;86.60;;;;;;5008275;28;20452;-73
2023/03/26 07:40:57;;;;;;;15.52;8.63;;;8.30;86.60;;;;;;5010286;28;20060;-74
2023/03/26 07:43:31;;;;;;;11.10;5.60;;;8.40;86.80;;;;;;5024735;28;20021;-73
2023/03/26 07:45:57;;;;;;;10.55;4.88;;;8.40;87.00;;;;;;5020610;28;20057;-72
2023/03/26 07:48:26;;;;;;;7.00;3.92;;;8.40;86.90;;;;;;5007457;28;20022;-73
2023/03/26 07:50:53;;;;;;;5.50;2.65;;;8.50;87.00;;;;;;5022314;28;20382;-73
2023/03/26 07:53:20;;;;;;;5.95;2.92;;;8.50;86.80;;;;;;5009995;28;20033;-73
2023/03/26 07:56:14;;;;;;;7.47;2.67;;;8.30;86.20;;;;;;5032055;28;20048;-73
2023/03/26 07:59:08;;;;;;;7.63;3.25;;;8.30;86.20;;;;;;5024258;28;20124;-72
2023/03/26 08:01:52;;;;;;;5.32;2.67;;;8.30;86.50;;;;;;5020617;28;20041;-72
2023/03/26 08:04:46;;;;;;;6.43;3.47;;;8.40;86.50;;;;;;5026788;28;20406;-72
2023/03/26 08:07:28;;;;;;;5.53;2.80;;;8.30;86.00;;;;;;5020277;28;20041;-72
2023/03/26 08:10:06;;;;;;;5.07;2.17;;;8.40;86.30;;;;;;5023604;28;20708;-72
2023/03/26 08:13:05;;;;;;;4.50;2.00;;;8.30;86.10;;;;;;5021726;28;20116;-74
2023/03/26 08:15:39;;;;;;;7.35;2.13;;;8.30;86.30;;;;;;5036044;28;20371;-73
2023/03/26 08:18:26;;;;;;;6.93;2.30;;;8.20;86.50;;;;;;5023282;28;20583;-72
2023/03/26 08:21:07;;;;;;;5.40;2.72;;;8.10;86.40;;;;;;5017797;28;20021;-73
2023/03/26 08:23:55;;;;;;;6.82;3.33;;;8.10;86.80;;;;;;5021756;28;20030;-73
2023/03/26 08:26:26;;;;;;;7.47;3.25;;;8.10;86.70;;;;;;5019991;28;20422;-73
2023/03/26 08:29:19;;;;;;;6.80;2.50;;;8.10;87.20;;;;;;5021615;28;20036;-73
2023/03/26 08:31:48;;;;;;;8.05;3.60;;;8.00;87.00;;;;;;5032900;28;20141;-73
2023/03/26 08:34:13;;;;;;;5.25;2.70;;;8.10;87.30;;;;;;5020820;28;20397;-73
2023/03/26 08:36:39;;;;;;;5.85;2.17;;;8.00;87.10;;;;;;5011555;28;20033;-73
2023/03/26 08:39:06;;;;;;;5.40;2.40;;;8.00;87.40;;;;;;5015357;28;20033;-74
2023/03/26 08:42:23;;;;;;;6.78;2.60;;;8.00;87.40;;;;;;5023117;28;20120;-73
2023/03/26 08:45:00;;;;;;;;;;;8.00;87.50;;;;;;4999000;28;20049;-73
2023/03/26 08:48:15;;;;;;;8.30;3.00;;;8.00;87.70;;;;;;4997301;28;19920;-72
2023/03/26 08:51:09;;;;;;;8.35;3.00;;;8.10;87.90;;;;;;5019547;28;20393;-73
2023/03/26 08:53:50;;;;;;;8.63;3.63;;;8.00;88.10;;;;;;5015593;28;20063;-72
2023/03/26 08:56:31;;;;;;;6.57;3.33;;;8.10;88.40;;;;;;5026247;28;20858;-73
2023/03/26 08:59:32;;;;;;;7.60;2.95;;;8.10;88.50;;;;;;5025822;28;20359;-73
2023/03/26 09:02:46;;;;;;;6.25;2.95;;;8.10;88.70;;;;;;5021728;28;20432;-73
2023/03/26 09:05:45;;;;;;;7.82;2.65;;;8.10;88.80;;;;;;5004065;28;20049;-73
2023/03/26 09:08:36;;;;;;;7.80;2.90;;;8.00;88.80;;;;;;5021511;28;20517;-73
2023/03/26 09:11:23;;;;;;;8.18;3.53;;;8.00;88.80;;;;;;5020150;28;21649;-74
2023/03/26 09:14:17;;;;;;;7.93;3.10;;;8.10;88.90;;;;;;5020522;28;20038;-72
2023/03/26 09:16:55;;;;;;;9.40;3.10;;;8.10;89.00;;;;;;5022868;28;20103;-73
2023/03/26 09:19:30;;;;;;;10.13;4.25;;;8.20;89.20;;;;;;5021044;28;20083;-72
2023/03/26 09:22:23;;;;;;;13.55;5.00;;;8.20;88.50;;;;;;5022689;28;20041;-72
2023/03/26 09:25:26;;;;;;;9.73;3.88;;;8.10;89.10;;;;;;5021973;28;20079;-73
2023/03/26 09:27:58;;;;;;;14.07;5.78;;;8.20;89.10;;;;;;4991851;28;20478;-73
2023/03/26 09:30:51;;;;;;;12.02;5.70;;;8.30;89.00;;;;;;5019091;28;20021;-73
2023/03/26 09:33:30;;;;;;;11.27;4.75;;;8.30;89.00;;;;;;5019745;28;20048;-73
2023/03/26 09:36:19;;;;;;;9.40;3.70;;;8.20;89.30;;;;;;5020011;28;20044;-73
2023/03/26 09:38:53;;;;;;;8.27;3.75;;;8.10;89.50;;;;;;5025293;28;20433;-73
2023/03/26 09:41:32;;;;;;;9.77;3.95;;;8.00;89.90;;;;;;5019869;28;20057;-72
2023/03/26 09:44:13;;;;;;;9.77;3.47;;;8.10;90.10;;;;;;5021068;28;20036;-72
2023/03/26 09:46:41;;;;;;;7.50;3.72;;;8.10;90.00;;;;;;5014710;28;20084;-72
2023/03/26 09:49:29;;;;;;;8.80;3.53;;;8.10;90.20;;;;;;5020144;28;20033;-73
2023/03/26 09:52:09;;;;;;;9.40;3.95;;;8.10;89.90;;;;;;5017329;28;20514;-73
2023/03/26 09:55:29;;;;;;;6.20;3.33;;;8.10;90.20;;;;;;5021847;28;20035;-73
2023/03/26 09:58:14;;;;;;;10.18;4.43;;;8.10;90.00;;;;;;4932128;28;20039;-74
2023/03/26 10:00:50;;;;;;;;;;;8.10;89.90;;;;;;5021241;28;20553;-73
2023/03/26 10:03:39;;;;;;;10.23;5.00;;;8.10;90.10;;;;;;5022212;28;19913;-73
2023/03/26 10:06:36;;;;;;;10.73;4.20;;;8.10;90.10;;;;;;5017383;28;20069;-73
2023/03/26 10:09:39;;;;;;;9.25;3.78;;;8.20;90.10;;;;;;5022808;28;20033;-73
2023/03/26 10:12:37;;;;;;;9.02;3.90;;;8.20;89.90;;;;;;5013496;28;20026;-73
2023/03/26 10:15:17;;;;;;;8.15;3.80;;;8.20;90.00;;;;;;5020876;28;20550;-74
2023/03/26 10:18:13;;;;;;;6.80;3.42;;;8.10;89.80;;;;;;5020083;28;20056;-74
2023/03/26 10:21:08;;;;;;;8.88;3.90;;;8.30;90.00;;;;;;5014163;28;20050;-74
2023/03/26 10:23:46;;;;;;;11.63;4.00;;;8.50;90.00;;;;;;5011038;28;20875;-74
2023/03/26 10:26:38;;;;;;;8.75;3.85;;;8.60;89.70;;;;;;5017929;28;20576;-74
2023/03/26 10:29:12;;;;;;;8.00;3.70;;;8.60;89.30;;;;;;5019029;28;20038;-73
2023/03/26 10:32:02;;;;;;;6.28;2.10;;;8.50;89.10;;;;;;5022260;28;20036;-71
2023/03/26 10:34:42;;;;;;;6.47;2.47;;;8.40;88.30;;;;;;5022513;28;20029;-74
2023/03/26 10:37:12;;;;;;;6.32;2.50;;;8.40;88.30;;;;;;5016865;28;20037;-74
2023/03/26 10:40:04;;;;;;;5.53;2.50;;;8.40;88.30;;;;;;5019162;28;20044;-74
2023/03/26 10:43:06;;;;;;;7.28;2.67;;;8.50;88.60;;;;;;5019206;28;20041;-74
2023/03/26 10:45:56;;;;;;;6.90;2.60;;;8.50;88.60;;;;;;5009071;28;20075;-74
2023/03/26 10:48:41;;;;;;;6.88;3.03;;;8.50;88.60;;;;;;5034404;28;20045;-74
2023/03/26 10:51:45;;;;;;;7.30;3.20;;;8.50;88.20;;;;;;5022018;28;20096;-74
2023/03/26 10:54:21;;;;;;;6.45;2.72;;;8.50;88.10;;;;;;5013107;28;20030;-74
2023/03/26 10:56:49;;;;;;;7.97;3.20;;;8.60;88.40;;;;;;5023066;28;20042;-74
2023/03/26 10:59:17;;;;;;;7.82;2.90;;;8.60;88.50;;;;;;5023070;28;20160;-74
2023/03/26 11:02:04;;;;;;;5.03;2.42;;;8.60;88.40;;;;;;5022647;28;20049;-73
2023/03/26 11:04:41;;;;;;;6.38;3.15;;;8.70;87.40;;;;;;5023084;28;20511;-73
2023/03/26 11:07:20;;;;;;;6.57;2.60;;;8.60;87.90;;;;;;5022785;28;20033;-73
2023/03/26 11:09:52;;;;;;;8.52;2.90;;;8.60;87.70;;;;;;5022049;28;20022;-74
2023/03/26 11:12:21;;;;;;;5.45;2.13;;;8.60;87.50;;;;;;5021585;28;20033;-73
2023/03/26 11:15:21;;;;;;;7.90;2.67;;;8.70;87.40;;;;;;5016046;28;20303;-73
2023/03/26 11:18:12;;;;;;;7.85;2.75;;;8.70;87.10;;;;;;5022422;28;20048;-74
2023/03/26 11:20:49;;;;;;;8.48;3.13;;;8.70;87.60;;;;;;5023629;28;20021;-73
2023/03/26 11:23:18;;;;;;;8.57;2.80;;;8.90;88.10;;;;;;5024676;28;20032;-73
2023/03/26 11:25:59;;;;;;;5.72;2.90;;;8.90;88.00;;;;;;5028389;28;20033;-73
2023/03/26 11:28:46;;;;;;;8.02;2.75;;;8.80;86.90;;;;;;5015909;28;20453;-72
2023/03/26 11:31:26;;;;;;;5.32;2.58;;;8.70;87.20;;;;;;5021425;28;20049;-73
2023/03/26 11:33:59;;;;;;;5.75;2.50;;;8.80;87.40;;;;;;5022915;28;20087;-74
2023/03/26 11:36:30;;;;;;;5.60;2.30;;;8.90;87.10;;;;;;5021848;28;20050;-72
2023/03/26 11:39:01;;;;;;;6.78;3.13;;;9.00;86.70;;;;;;5018779;28;20462;-72
2023/03/26 11:41:31;;;;;;;4.78;2.75;;;9.00;85.60;;;;;;5027175;28;20045;-74
2023/03/26 11:43:59;;;;;;;5.65;2.13;;;9.20;85.90;;;;;;5033914;28;20050;-74
2023/03/26 11:46:25;;;;;;;5.60;2.10;;;9.20;83.90;;;;;;5021398;28;20065;-74
2023/03/26 11:49:08;;;;;;;4.43;2.13;;;9.40;84.10;;;;;;5020069;28;20029;-74
2023/03/26 11:51:35;;;;;;;4.40;2.05;;;9.70;84.70;;;;;;5023069;28;20076;-73
2023/03/26 11:54:02;;;;;;;6.90;3.20;;;9.80;83.80;;;;;;5027354;28;20490;-73
2023/03/26 11:56:55;;;;;;;6.18;2.85;;;10.00;83.50;;;;;;5020738;28;20057;-73
2023/03/26 11:59:29;;;;;;;6.10;2.15;;;10.10;83.30;;;;;;5021161;28;20036;-73
2023/03/26 12:01:58;;;;;;;3.35;1.50;;;9.80;82.50;;;;;;5022456;28;20167;-73
2023/03/26 12:04:42;;;;;;;4.65;1.80;;;9.60;81.50;;;;;;5015623;28;20021;-73
2023/03/26 12:07:22;;;;;;;4.37;1.77;;;9.60;80.70;;;;;;5018861;28;20394;-73
2023/03/26 12:09:59;;;;;;;4.47;2.42;;;9.80;82.00;;;;;;5020159;28;20390;-73
2023/03/26 12:12:30;;;;;;;8.60;3.67;;;9.60;80.90;;;;;;5018117;28;20041;-74
2023/03/26 12:14:57;;;;;;;8.82;3.20;;;9.70;83.00;;;;;;5021610;28;20022;-74
2023/03/26 12:17:36;;;;;;;7.20;3.50;;;9.80;83.10;;;;;;5023407;28;20404;-73
2023/03/26 12:20:25;;;;;;;9.70;4.32;;;9.70;83.20;;;;;;5028596;28;20040;-73
2023/03/26 12:22:58;;;;;;;12.82;5.68;;;9.60;83.40;;;;;;5018070;28;20515;-73
2023/03/26 12:25:30;;;;;;;11.40;5.63;;;9.50;84.80;;;;;;5022459;28;20433;-73
2023/03/26 12:28:12;;;;;;;11.77;5.97;;;9.50;84.70;;;;;;5021612;28;20033;-72
2023/03/26 12:30:52;;;;;;;13.93;7.75;;;9.60;84.90;;;;;;5032345;28;20737;-72
2023/03/26 12:33:28;;;;;;;13.55;9.57;;;9.50;85.00;;;;;;5023208;28;20022;-74
2023/03/26 12:35:59;;;;;;;20.15;10.95;;;9.50;85.00;;;;;;5024411;28;20281;-74
2023/03/26 12:38:31;;;;;;;14.70;8.90;;;9.60;85.90;;;;;;5036129;28;20374;-74
2023/03/26 12:41:11;;;;;;;11.82;7.78;;;9.70;85.20;;;;;;5023478;28;20666;-73
2023/03/26 12:43:45;;;;;;;11.88;5.90;;;10.00;85.80;;;;;;5021715;28;20017;-73
2023/03/26 12:46:32;;;;;;;9.63;4.50;;;10.10;85.20;;;;;;5017945;28;20041;-73
2023/03/26 12:49:04;;;;;;;8.05;4.80;;;10.10;83.90;;;;;;5024386;28;20029;-73
2023/03/26 12:51:30;;;;;;;7.93;4.20;;;10.10;84.40;;;;;;5023500;28;20060;-73
2023/03/26 12:54:17;;;;;;;9.00;4.43;;;10.20;84.30;;;;;;5022153;28;20386;-73
2023/03/26 12:56:58;;;;;;;6.60;3.50;;;10.20;84.50;;;;;;5016670;28;20132;-72
2023/03/26 12:59:42;;;;;;;7.88;3.67;;;10.00;83.70;;;;;;5021779;28;20033;-72
2023/03/26 13:02:28;;;;;;;7.63;3.65;;;10.00;83.90;;;;;;5015083;28;20056;-73
2023/03/26 13:04:53;;;;;;;8.25;3.90;;;10.10;84.10;;;;;;5010475;28;20077;-73
2023/03/26 13:07:47;;;;;;;10.00;4.28;;;10.00;84.60;;;;;;5017936;28;20533;-72
2023/03/26 13:10:34;;;;;;;9.32;4.57;;;10.00;84.70;;;;;;5022756;28;20359;-74
2023/03/26 13:13:35;;;;;;;8.75;4.45;;;10.10;85.30;;;;;;5027719;28;20038;-74
2023/03/26 13:16:10;;;;;;;8.90;4.25;;;10.10;85.40;;;;;;5018930;28;20072;-74
2023/03/26 13:18:47;;;;;;;9.48;4.85;;;10.00;85.80;;;;;;5022110;28;20025;-73
2023/03/26 13:21:15;;;;;;;7.50;4.30;;;9.90;85.90;;;;;;5027278;28;20441;-73
2023/03/26 13:24:25;;;;;;;9.18;5.38;;;10.00;85.90;;;;;;5021437;28;20014;-73
2023/03/26 13:27:11;;;;;;;10.20;5.40;;;10.00;85.40;;;;;;5016494;28;20776;-73